createdAt,value
2023-09-03T00:01:05.659Z,3.20
2023-09-03T00:03:35.186Z,2.40
2023-09-03T00:06:03.605Z,2.27
2023-09-03T00:08:33.530Z,2.27
2023-09-03T00:11:01.604Z,2.53
2023-09-03T00:13:29.852Z,3.07
2023-09-03T00:15:58.422Z,2.87
2023-09-03T00:18:28.402Z,2.43
2023-09-03T00:21:00.167Z,2.30
2023-09-03T00:23:28.230Z,1.87
2023-09-03T00:25:57.291Z,2.33
2023-09-03T00:28:25.900Z,2.60
2023-09-03T00:31:04.942Z,2.77
2023-09-03T00:33:33.610Z,2.50
2023-09-03T00:36:05.754Z,2.20
2023-09-03T00:38:34.890Z,2.47
2023-09-03T00:41:06.221Z,2.27
2023-09-03T00:43:35.513Z,2.27
2023-09-03T00:46:08.776Z,2.17
2023-09-03T00:48:40.258Z,2.00
2023-09-03T00:51:11.993Z,2.23
2023-09-03T00:53:43.758Z,2.10
2023-09-03T00:56:13.279Z,2.37
2023-09-03T00:58:44.109Z,1.83
2023-09-03T01:01:12.605Z,2.00
2023-09-03T01:03:44.262Z,2.30
2023-09-03T01:06:14.640Z,2.10
2023-09-03T01:08:43.446Z,1.93
2023-09-03T01:11:27.128Z,1.97
2023-09-03T01:14:01.508Z,2.20
2023-09-03T01:16:35.305Z,2.33
2023-09-03T01:19:12.612Z,1.60
2023-09-03T01:21:54.812Z,2.00
2023-09-03T01:24:37.794Z,1.93
2023-09-03T01:27:24.000Z,1.70
2023-09-03T01:29:55.070Z,2.03
2023-09-03T01:32:24.593Z,2.37
2023-09-03T01:34:55.706Z,2.30
2023-09-03T01:37:24.258Z,2.27
2023-09-03T01:39:52.332Z,2.00
2023-09-03T01:42:20.660Z,2.07
2023-09-03T01:44:48.939Z,2.17
2023-09-03T01:47:29.681Z,2.07
2023-09-03T01:50:08.944Z,1.70
2023-09-03T01:52:47.022Z,1.70
2023-09-03T01:55:18.817Z,1.80
2023-09-03T01:57:51.166Z,1.80
2023-09-03T02:00:21.054Z,1.80
2023-09-03T02:02:52.520Z,1.90
2023-09-03T02:05:21.366Z,2.33
2023-09-03T02:07:49.842Z,2.27
2023-09-03T02:10:19.027Z,2.07
2023-09-03T02:12:47.301Z,2.03
2023-09-03T02:15:15.628Z,2.70
2023-09-03T02:17:44.062Z,2.10
2023-09-03T02:20:14.101Z,1.97
2023-09-03T02:22:42.221Z,1.70
2023-09-03T02:25:13.137Z,1.80
2023-09-03T02:27:41.179Z,1.77
2023-09-03T02:30:10.322Z,1.70
2023-09-03T02:32:38.577Z,2.00
2023-09-03T02:35:08.123Z,1.97
2023-09-03T02:37:38.074Z,2.10
2023-09-03T02:40:07.768Z,2.00
2023-09-03T02:42:35.909Z,2.33
2023-09-03T02:45:05.165Z,1.80
2023-09-03T02:47:33.484Z,1.93
2023-09-03T02:50:01.945Z,2.17
2023-09-03T02:52:30.516Z,1.97
2023-09-03T02:55:00.525Z,1.67
2023-09-03T02:57:29.045Z,1.80
2023-09-03T02:59:57.163Z,1.40
2023-09-03T03:02:25.226Z,1.60
2023-09-03T03:04:53.627Z,1.47
2023-09-03T03:07:21.682Z,1.37
2023-09-03T03:09:51.666Z,1.30
2023-09-03T03:12:21.925Z,1.80
2023-09-03T03:14:51.143Z,2.40
2023-09-03T03:17:19.678Z,2.40
2023-09-03T03:19:52.016Z,2.37
2023-09-03T03:22:21.071Z,2.33
2023-09-03T03:24:49.458Z,2.10
2023-09-03T03:27:17.961Z,2.10
2023-09-03T03:29:48.529Z,2.23
2023-09-03T03:32:20.566Z,3.10
2023-09-03T03:34:52.817Z,2.53
2023-09-03T03:37:21.784Z,2.77
2023-09-03T03:39:51.257Z,2.57
2023-09-03T03:42:21.295Z,2.40
2023-09-03T03:44:51.297Z,2.83
2023-09-03T03:47:20.465Z,2.70
2023-09-03T03:49:49.527Z,2.87
2023-09-03T03:52:18.799Z,2.47
2023-09-03T03:54:46.976Z,3.27
2023-09-03T03:57:15.278Z,2.70
2023-09-03T03:59:43.466Z,2.27
2023-09-03T04:02:13.318Z,2.60
2023-09-03T04:04:41.434Z,3.00
2023-09-03T04:07:09.946Z,2.50
2023-09-03T04:09:38.706Z,3.17
2023-09-03T04:12:08.875Z,3.10
2023-09-03T04:14:38.619Z,4.07
2023-09-03T04:17:07.160Z,4.07
2023-09-03T04:19:36.867Z,3.80
2023-09-03T04:22:05.478Z,4.43
2023-09-03T04:24:33.859Z,3.77
2023-09-03T04:27:02.049Z,3.83
2023-09-03T04:29:30.510Z,4.20
2023-09-03T04:31:59.037Z,3.80
2023-09-03T04:34:28.502Z,3.60
2023-09-03T04:36:58.401Z,3.90
2023-09-03T04:39:26.568Z,3.73
2023-09-03T04:41:54.959Z,3.87
2023-09-03T04:44:24.447Z,4.10
2023-09-03T04:46:53.061Z,4.23
2023-09-03T04:49:23.185Z,3.63
2023-09-03T04:51:51.622Z,3.97
2023-09-03T04:54:21.266Z,3.77
2023-09-03T04:56:50.940Z,4.37
2023-09-03T04:59:19.455Z,4.20
2023-09-03T05:01:48.599Z,5.10
2023-09-03T05:04:16.820Z,4.60
2023-09-03T05:06:46.501Z,4.77
2023-09-03T05:09:16.049Z,4.97
2023-09-03T05:11:45.943Z,5.23
2023-09-03T05:14:14.283Z,6.07
2023-09-03T05:16:42.454Z,5.40
2023-09-03T05:19:15.690Z,5.67
2023-09-03T05:21:44.097Z,6.03
2023-09-03T05:24:12.587Z,6.00
2023-09-03T05:26:41.826Z,5.40
2023-09-03T05:29:12.310Z,5.83
2023-09-03T05:31:40.573Z,7.07
2023-09-03T05:34:08.882Z,6.43
2023-09-03T05:36:37.777Z,6.27
2023-09-03T05:39:06.260Z,5.97
2023-09-03T05:41:34.823Z,5.80
2023-09-03T05:44:07.498Z,6.10
2023-09-03T05:46:39.106Z,6.20
2023-09-03T05:49:07.955Z,5.63
2023-09-03T05:51:36.223Z,6.17
2023-09-03T05:54:06.126Z,6.13
2023-09-03T05:56:34.448Z,6.13
2023-09-03T05:59:07.011Z,6.40
2023-09-03T06:01:38.811Z,6.27
2023-09-03T06:04:10.859Z,6.43
2023-09-03T06:06:40.571Z,8.07
2023-09-03T06:09:10.453Z,6.60
2023-09-03T06:11:39.197Z,6.33
2023-09-03T06:14:07.359Z,6.17
2023-09-03T06:16:37.374Z,5.63
2023-09-03T06:19:06.097Z,6.13
2023-09-03T06:21:34.307Z,6.53
2023-09-03T06:24:02.440Z,7.13
2023-09-03T06:26:30.720Z,7.80
2023-09-03T06:28:59.984Z,6.03
2023-09-03T06:31:28.673Z,5.93
2023-09-03T06:33:59.393Z,8.57
2023-09-03T06:36:27.926Z,8.17
2023-09-03T06:38:55.972Z,8.70
2023-09-03T06:41:24.629Z,8.23
2023-09-03T06:43:52.911Z,8.33
2023-09-03T06:46:21.033Z,8.07
2023-09-03T06:48:50.862Z,9.07
2023-09-03T06:51:22.604Z,8.87
2023-09-03T06:53:50.982Z,9.90
2023-09-03T06:56:19.295Z,8.53
2023-09-03T06:58:47.585Z,8.83
2023-09-03T07:01:16.026Z,8.17
2023-09-03T07:03:44.607Z,8.23
2023-09-03T07:06:12.714Z,9.60
2023-09-03T07:08:42.555Z,8.33
2023-09-03T07:11:11.586Z,9.10
2023-09-03T07:13:40.220Z,9.50
2023-09-03T07:16:09.759Z,9.03
2023-09-03T07:18:37.980Z,8.67
2023-09-03T07:21:07.113Z,9.37
2023-09-03T07:23:36.007Z,9.20
2023-09-03T07:26:07.154Z,9.83
2023-09-03T07:28:35.854Z,9.03
2023-09-03T07:31:04.841Z,9.27
2023-09-03T07:33:34.376Z,9.37
2023-09-03T07:36:02.652Z,9.53
2023-09-03T07:38:31.227Z,11.30
2023-09-03T07:40:59.312Z,10.70
2023-09-03T07:43:29.006Z,10.10
2023-09-03T07:45:57.586Z,9.87
2023-09-03T07:48:26.222Z,9.80
2023-09-03T07:50:54.841Z,10.57
2023-09-03T07:53:23.650Z,10.57
2023-09-03T07:55:52.556Z,9.47
2023-09-03T07:58:21.128Z,10.33
2023-09-03T08:00:53.583Z,10.33
2023-09-03T08:03:22.134Z,10.83
2023-09-03T08:05:50.710Z,10.43
2023-09-03T08:08:18.773Z,10.90
2023-09-03T08:10:46.950Z,10.93
2023-09-03T08:13:15.075Z,10.43
2023-09-03T08:15:44.827Z,9.80
2023-09-03T08:18:15.241Z,10.93
2023-09-03T08:20:43.787Z,11.60
2023-09-03T08:23:13.786Z,10.27
2023-09-03T08:25:43.155Z,9.97
2023-09-03T08:28:12.263Z,10.43
2023-09-03T08:30:40.512Z,9.67
2023-09-03T08:33:09.404Z,8.95
2023-09-03T08:35:39.324Z,9.20
2023-09-03T08:38:07.435Z,9.20
2023-09-03T08:40:37.453Z,8.48
2023-09-03T08:43:10.466Z,8.80
2023-09-03T08:45:43.539Z,8.57
2023-09-03T08:48:14.320Z,9.23
2023-09-03T08:50:44.264Z,7.97
2023-09-03T08:53:13.951Z,7.32
2023-09-03T08:55:43.067Z,7.35
2023-09-03T08:58:11.498Z,6.68
2023-09-03T09:00:40.557Z,6.72
2023-09-03T09:03:12.985Z,7.15
2023-09-03T09:05:45.162Z,5.75
2023-09-03T09:08:15.108Z,6.38
2023-09-03T09:10:48.608Z,5.78
2023-09-03T09:13:22.287Z,5.85
2023-09-03T09:15:51.109Z,5.57
2023-09-03T09:18:19.664Z,6.00
2023-09-03T09:20:50.900Z,5.82
2023-09-03T09:23:24.070Z,5.40
2023-09-03T09:25:52.845Z,5.68
2023-09-03T09:28:22.097Z,5.55
2023-09-03T09:30:58.149Z,6.18
2023-09-03T09:33:28.530Z,5.68
2023-09-03T09:36:11.560Z,4.78
2023-09-03T09:38:40.595Z,4.35
2023-09-03T09:41:23.403Z,4.15
2023-09-03T09:43:50.771Z,3.58
2023-09-03T09:46:28.016Z,3.78
2023-09-03T09:48:59.066Z,3.90
2023-09-03T09:51:30.577Z,3.25
2023-09-03T09:53:59.847Z,3.30
2023-09-03T09:56:29.424Z,3.17
2023-09-03T09:58:59.582Z,3.70
2023-09-03T10:01:28.873Z,3.55
2023-09-03T10:03:57.159Z,3.08
2023-09-03T10:06:28.343Z,3.75
2023-09-03T10:08:58.287Z,3.30
2023-09-03T10:11:28.504Z,2.50
2023-09-03T10:13:57.947Z,2.53
2023-09-03T10:16:26.546Z,2.22
2023-09-03T10:18:59.374Z,2.22
2023-09-03T10:21:47.085Z,2.55
2023-09-03T10:24:20.576Z,1.90
2023-09-03T10:26:54.383Z,1.70
2023-09-03T10:29:24.182Z,2.15
2023-09-03T10:31:54.339Z,1.75
2023-09-03T10:34:23.157Z,1.60
2023-09-03T10:37:11.053Z,1.40
2023-09-03T10:39:43.799Z,1.70
2023-09-03T10:42:31.307Z,1.55
2023-09-03T10:45:00.974Z,1.80
2023-09-03T10:47:29.551Z,1.75
2023-09-03T10:49:57.852Z,2.25
2023-09-03T10:52:42.620Z,2.00
2023-09-03T10:55:16.237Z,1.70
2023-09-03T10:57:45.448Z,1.92
2023-09-03T11:00:17.272Z,1.92
2023-09-03T11:02:50.453Z,1.80
2023-09-03T11:05:22.489Z,2.00
2023-09-03T11:07:52.358Z,1.98
2023-09-03T11:10:44.578Z,2.10
2023-09-03T11:13:26.467Z,1.88
2023-09-03T11:16:04.907Z,1.98
2023-09-03T11:18:34.316Z,2.25
2023-09-03T11:21:04.232Z,2.22
2023-09-03T11:23:36.134Z,2.08
2023-09-03T11:26:13.979Z,1.90
2023-09-03T11:28:47.186Z,1.70
2023-09-03T11:31:16.047Z,2.47
2023-09-03T11:33:44.370Z,1.90
2023-09-03T11:36:13.125Z,1.80
2023-09-03T11:38:41.495Z,1.60
2023-09-03T11:41:11.068Z,1.65
2023-09-03T11:43:41.717Z,1.98
2023-09-03T11:46:16.944Z,1.80
2023-09-03T11:48:52.009Z,1.60
2023-09-03T11:51:27.838Z,1.70
2023-09-03T11:53:57.076Z,1.83
2023-09-03T11:56:28.744Z,1.77
2023-09-03T11:59:01.327Z,1.60
2023-09-03T12:01:30.066Z,1.70
2023-09-03T12:03:58.612Z,1.80
2023-09-03T12:06:27.064Z,1.58
2023-09-03T12:08:55.398Z,1.25
2023-09-03T12:11:32.455Z,1.42
2023-09-03T12:14:01.488Z,1.50
2023-09-03T12:16:29.772Z,1.63
2023-09-03T12:18:59.280Z,1.70
2023-09-03T12:21:34.987Z,1.65
2023-09-03T12:24:05.505Z,1.73
2023-09-03T12:26:37.317Z,1.70
2023-09-03T12:29:07.023Z,1.88
2023-09-03T12:31:42.893Z,1.60
2023-09-03T12:34:11.312Z,1.55
2023-09-03T12:36:56.790Z,1.60
2023-09-03T12:39:32.667Z,1.50
2023-09-03T12:42:03.429Z,1.50
2023-09-03T12:44:32.467Z,1.52
2023-09-03T12:47:02.219Z,1.63
2023-09-03T12:49:30.576Z,1.67
2023-09-03T12:52:00.424Z,1.50
2023-09-03T12:54:30.758Z,1.48
2023-09-03T12:57:02.087Z,1.50
2023-09-03T12:59:30.365Z,1.38
2023-09-03T13:01:59.089Z,1.90
2023-09-03T13:04:27.506Z,2.00
2023-09-03T13:06:55.914Z,2.10
2023-09-03T13:09:25.681Z,1.77
2023-09-03T13:11:54.051Z,1.25
2023-09-03T13:14:24.014Z,1.45
2023-09-03T13:16:52.785Z,1.55
2023-09-03T13:19:20.916Z,1.60
2023-09-03T13:21:49.199Z,1.70
2023-09-03T13:24:17.564Z,1.73
2023-09-03T13:26:46.493Z,1.65
2023-09-03T13:29:15.214Z,1.50
2023-09-03T13:31:44.903Z,1.85
2023-09-03T13:34:13.292Z,1.73
2023-09-03T13:36:41.916Z,1.70
2023-09-03T13:39:11.300Z,1.60
2023-09-03T13:41:39.610Z,1.65
2023-09-03T13:44:07.751Z,1.60
2023-09-03T13:46:35.978Z,1.63
2023-09-03T13:49:07.251Z,1.50
2023-09-03T13:51:35.460Z,1.30
2023-09-03T13:54:06.264Z,1.63
2023-09-03T13:56:34.442Z,1.40
2023-09-03T13:59:02.590Z,1.30
2023-09-03T14:01:31.363Z,1.42
2023-09-03T14:03:59.917Z,1.75
2023-09-03T14:06:29.924Z,1.10
2023-09-03T14:08:58.504Z,1.17
2023-09-03T14:11:26.555Z,1.35
2023-09-03T14:13:54.929Z,1.10
2023-09-03T14:16:23.106Z,1.73
2023-09-03T14:18:52.007Z,1.33
2023-09-03T14:21:20.874Z,1.30
2023-09-03T14:23:50.411Z,1.30
2023-09-03T14:26:19.470Z,1.30
2023-09-03T14:28:51.210Z,1.40
2023-09-03T14:31:19.664Z,1.15
2023-09-03T14:33:48.163Z,1.35
2023-09-03T14:36:16.366Z,1.30
2023-09-03T14:38:45.297Z,1.30
2023-09-03T14:41:14.914Z,1.10
2023-09-03T14:43:44.864Z,1.40
2023-09-03T14:46:13.312Z,1.30
2023-09-03T14:48:41.704Z,1.27
2023-09-03T14:51:10.124Z,1.25
2023-09-03T14:53:38.498Z,1.40
2023-09-03T14:56:08.117Z,1.42
2023-09-03T14:58:38.648Z,1.30
2023-09-03T15:01:14.637Z,1.30
2023-09-03T15:03:43.250Z,1.35
2023-09-03T15:06:11.702Z,1.40
2023-09-03T15:08:39.974Z,1.38
2023-09-03T15:11:13.567Z,1.13
2023-09-03T15:13:43.772Z,1.17
2023-09-03T15:16:12.807Z,1.40
2023-09-03T15:18:41.248Z,1.60
2023-09-03T15:21:09.821Z,1.20
2023-09-03T15:23:38.117Z,1.20
2023-09-03T15:26:06.202Z,1.27
2023-09-03T15:28:34.541Z,0.93
2023-09-03T15:31:04.373Z,1.17
2023-09-03T15:33:32.666Z,1.38
2023-09-03T15:36:01.080Z,1.23
2023-09-03T15:38:29.263Z,1.40
2023-09-03T15:40:57.538Z,1.27
2023-09-03T15:43:26.958Z,1.50
2023-09-03T15:45:55.764Z,1.25
2023-09-03T15:48:26.039Z,1.48
2023-09-03T15:50:57.087Z,1.42
2023-09-03T15:53:26.772Z,1.40
2023-09-03T15:55:57.234Z,1.42
2023-09-03T15:58:25.875Z,1.42
2023-09-03T16:00:54.216Z,1.38
2023-09-03T16:03:24.341Z,1.30
2023-09-03T16:05:52.893Z,1.30
2023-09-03T16:08:21.357Z,1.70
2023-09-03T16:10:51.176Z,1.30
2023-09-03T16:13:19.440Z,1.25
2023-09-03T16:15:48.509Z,1.30
2023-09-03T16:18:17.785Z,1.55
2023-09-03T16:20:51.661Z,1.35
2023-09-03T16:23:19.682Z,1.70
2023-09-03T16:25:48.503Z,1.45
2023-09-03T16:28:16.633Z,1.52
2023-09-03T16:30:44.975Z,1.60
2023-09-03T16:33:13.142Z,1.60
2023-09-03T16:35:41.434Z,1.40
2023-09-03T16:38:11.221Z,1.70
2023-09-03T16:40:39.216Z,1.25
2023-09-03T16:43:07.473Z,1.50
2023-09-03T16:45:35.948Z,1.40
2023-09-03T16:48:04.535Z,1.70
2023-09-03T16:50:33.254Z,1.50
2023-09-03T16:53:03.657Z,1.70
2023-09-03T16:55:33.760Z,1.88
2023-09-03T16:58:02.554Z,1.35
2023-09-03T17:00:30.848Z,1.58
2023-09-03T17:02:59.327Z,1.45
2023-09-03T17:05:27.527Z,1.70
2023-09-03T17:07:57.218Z,1.55
2023-09-03T17:10:27.958Z,1.63
2023-09-03T17:12:57.984Z,1.55
2023-09-03T17:15:26.187Z,1.80
2023-09-03T17:17:54.522Z,1.50
2023-09-03T17:20:22.933Z,1.60
2023-09-03T17:22:51.077Z,1.60
2023-09-03T17:25:21.096Z,1.80
2023-09-03T17:27:49.542Z,2.00
2023-09-03T17:30:19.451Z,1.52
2023-09-03T17:32:48.069Z,1.65
2023-09-03T17:35:16.438Z,1.60
2023-09-03T17:37:46.699Z,2.05
2023-09-03T17:40:15.792Z,1.75
2023-09-03T17:42:45.846Z,1.65
2023-09-03T17:45:14.104Z,2.20
2023-09-03T17:47:44.356Z,1.60
2023-09-03T17:50:12.713Z,1.58
2023-09-03T17:52:40.766Z,2.10
2023-09-03T17:55:09.879Z,1.90
2023-09-03T17:57:37.962Z,2.10
2023-09-03T18:00:07.321Z,1.73
2023-09-03T18:02:40.755Z,1.90
2023-09-03T18:05:17.240Z,1.73
2023-09-03T18:07:45.385Z,2.13
2023-09-03T18:10:13.970Z,1.80
2023-09-03T18:12:42.666Z,1.90
2023-09-03T18:15:11.522Z,1.87
2023-09-03T18:17:39.940Z,2.03
2023-09-03T18:20:11.149Z,1.97
2023-09-03T18:22:39.277Z,1.80
2023-09-03T18:25:08.271Z,2.07
2023-09-03T18:27:39.373Z,1.70
2023-09-03T18:30:08.989Z,1.57
2023-09-03T18:32:37.270Z,1.70
2023-09-03T18:35:06.042Z,1.80
2023-09-03T18:37:37.238Z,1.60
2023-09-03T18:40:06.029Z,1.93
2023-09-03T18:42:34.240Z,1.70
2023-09-03T18:45:02.408Z,2.10
2023-09-03T18:47:30.621Z,1.80
2023-09-03T18:49:58.701Z,1.50
2023-09-03T18:52:27.207Z,2.17
2023-09-03T18:54:56.744Z,1.87
2023-09-03T18:57:25.441Z,1.87
2023-09-03T18:59:53.907Z,2.10
2023-09-03T19:02:22.258Z,1.87
2023-09-03T19:04:51.470Z,1.90
2023-09-03T19:07:19.677Z,1.70
2023-09-03T19:09:50.267Z,2.10
2023-09-03T19:12:19.971Z,2.20
2023-09-03T19:14:48.659Z,2.40
2023-09-03T19:17:17.082Z,2.00
2023-09-03T19:19:47.907Z,1.80
2023-09-03T19:22:16.076Z,1.97
2023-09-03T19:24:44.932Z,1.80
2023-09-03T19:27:15.598Z,1.80
2023-09-03T19:29:45.615Z,2.00
2023-09-03T19:32:13.673Z,1.80
2023-09-03T19:34:41.836Z,2.20
2023-09-03T19:37:10.030Z,1.93
2023-09-03T19:39:38.226Z,1.97
2023-09-03T19:42:06.737Z,2.00
2023-09-03T19:44:35.135Z,2.23
2023-09-03T19:47:05.637Z,1.90
2023-09-03T19:49:33.904Z,1.63
2023-09-03T19:52:02.297Z,1.70
2023-09-03T19:54:30.510Z,1.90
2023-09-03T19:56:58.886Z,2.23
2023-09-03T19:59:26.986Z,2.00
2023-09-03T20:01:55.048Z,2.10
2023-09-03T20:04:24.884Z,2.00
2023-09-03T20:06:53.300Z,2.00
2023-09-03T20:09:22.092Z,2.60
2023-09-03T20:11:50.372Z,2.13
2023-09-03T20:14:19.313Z,2.17
2023-09-03T20:16:47.740Z,2.03
2023-09-03T20:19:16.996Z,2.00
2023-09-03T20:21:46.896Z,2.13
2023-09-03T20:24:16.718Z,2.40
2023-09-03T20:26:45.395Z,2.03
2023-09-03T20:29:15.223Z,2.10
2023-09-03T20:31:45.110Z,2.13
2023-09-03T20:34:13.661Z,1.83
2023-09-03T20:36:42.169Z,1.87
2023-09-03T20:39:12.617Z,1.90
2023-09-03T20:41:41.719Z,2.00
2023-09-03T20:44:10.190Z,1.93
2023-09-03T20:46:39.225Z,2.13
2023-09-03T20:49:07.572Z,2.20
2023-09-03T20:51:35.682Z,2.03
2023-09-03T20:54:04.652Z,2.00
2023-09-03T20:56:34.672Z,1.90
2023-09-03T20:59:03.291Z,2.30
2023-09-03T21:01:32.150Z,2.33
2023-09-03T21:04:02.114Z,2.20
2023-09-03T21:06:30.588Z,2.00
2023-09-03T21:08:59.203Z,2.10
2023-09-03T21:11:35.143Z,1.87
2023-09-03T21:14:04.053Z,2.03
2023-09-03T21:16:33.142Z,1.83
2023-09-03T21:19:01.616Z,2.07
2023-09-03T21:21:31.326Z,1.97
2023-09-03T21:23:59.581Z,2.10
2023-09-03T21:26:28.523Z,2.30
2023-09-03T21:29:00.260Z,2.43
2023-09-03T21:31:28.539Z,2.00
2023-09-03T21:33:56.845Z,2.20
2023-09-03T21:36:25.168Z,2.33
2023-09-03T21:38:53.751Z,2.60
2023-09-03T21:41:21.867Z,2.17
2023-09-03T21:43:52.764Z,2.50
2023-09-03T21:46:22.927Z,2.30
2023-09-03T21:48:51.411Z,2.47
2023-09-03T21:51:20.393Z,2.23
2023-09-03T21:53:49.517Z,2.03
2023-09-03T21:56:17.840Z,2.40
2023-09-03T21:58:46.046Z,2.23
2023-09-03T22:01:15.284Z,2.30
2023-09-03T22:03:47.389Z,2.70
2023-09-03T22:06:16.524Z,2.03
2023-09-03T22:08:45.793Z,2.33
2023-09-03T22:11:14.971Z,3.03
2023-09-03T22:13:43.689Z,2.60
2023-09-03T22:16:12.111Z,2.33
2023-09-03T22:18:55.442Z,2.47
2023-09-03T22:21:28.740Z,2.57
2023-09-03T22:23:57.027Z,2.70
2023-09-03T22:26:25.496Z,2.60
2023-09-03T22:28:54.409Z,3.27
2023-09-03T22:31:22.541Z,2.47
2023-09-03T22:33:50.840Z,2.60
2023-09-03T22:36:19.306Z,2.53
2023-09-03T22:38:48.889Z,2.80
2023-09-03T22:41:17.353Z,2.67
2023-09-03T22:43:45.590Z,2.60
2023-09-03T22:46:14.253Z,2.20
2023-09-03T22:48:42.424Z,2.57
2023-09-03T22:51:10.438Z,2.13
2023-09-03T22:53:39.030Z,2.50
2023-09-03T22:56:10.196Z,2.87
2023-09-03T22:58:38.663Z,2.50
2023-09-03T23:01:07.715Z,2.40
2023-09-03T23:03:37.017Z,2.37
2023-09-03T23:06:05.943Z,2.60
2023-09-03T23:08:34.317Z,2.50
2023-09-03T23:11:02.466Z,2.60
2023-09-03T23:13:32.328Z,2.23
2023-09-03T23:16:00.738Z,2.53
2023-09-03T23:18:33.081Z,2.40
2023-09-03T23:21:04.159Z,2.60
2023-09-03T23:23:32.174Z,2.40
2023-09-03T23:26:00.238Z,2.30
2023-09-03T23:28:28.638Z,2.63
2023-09-03T23:30:58.451Z,2.73
2023-09-03T23:33:26.663Z,3.00
2023-09-03T23:35:55.185Z,2.90
2023-09-03T23:38:23.686Z,2.63
2023-09-03T23:40:52.724Z,2.70
2023-09-03T23:43:20.839Z,2.80
2023-09-03T23:45:49.215Z,2.53
2023-09-03T23:48:18.826Z,2.40
2023-09-03T23:50:46.957Z,2.60
2023-09-03T23:53:15.094Z,2.13
2023-09-03T23:55:43.799Z,2.50
2023-09-03T23:58:13.708Z,2.80
